sensor_id;sensor_type;location;lat;lon;timestamp;P1;durP1;ratioP1;P2;durP2;ratioP2
72647;SDS011;60693;50.002;8.644;2024-01-07T00:01:48;6.17;;;1.27;;
72647;SDS011;60693;50.002;8.644;2024-01-07T00:04:33;4.90;;;1.13;;
72647;SDS011;60693;50.002;8.644;2024-01-07T00:07:18;7.13;;;1.35;;
72647;SDS011;60693;50.002;8.644;2024-01-07T00:10:04;5.75;;;1.45;;
72647;SDS011;60693;50.002;8.644;2024-01-07T00:12:49;6.00;;;1.35;;
72647;SDS011;60693;50.002;8.644;2024-01-07T00:15:35;6.37;;;1.33;;
72647;SDS011;60693;50.002;8.644;2024-01-07T00:18:19;5.32;;;1.17;;
72647;SDS011;60693;50.002;8.644;2024-01-07T00:21:04;4.97;;;1.00;;
72647;SDS011;60693;50.002;8.644;2024-01-07T00:23:48;6.28;;;1.08;;
72647;SDS011;60693;50.002;8.644;2024-01-07T00:26:33;6.05;;;1.50;;
72647;SDS011;60693;50.002;8.644;2024-01-07T00:29:17;6.60;;;1.80;;
72647;SDS011;60693;50.002;8.644;2024-01-07T00:32:01;4.90;;;1.30;;
72647;SDS011;60693;50.002;8.644;2024-01-07T00:34:46;6.95;;;1.25;;
72647;SDS011;60693;50.002;8.644;2024-01-07T00:37:31;5.82;;;0.80;;
72647;SDS011;60693;50.002;8.644;2024-01-07T00:40:15;4.25;;;0.93;;
72647;SDS011;60693;50.002;8.644;2024-01-07T00:43:00;5.43;;;1.27;;
72647;SDS011;60693;50.002;8.644;2024-01-07T00:45:44;5.95;;;1.58;;
72647;SDS011;60693;50.002;8.644;2024-01-07T00:48:29;4.53;;;1.05;;
72647;SDS011;60693;50.002;8.644;2024-01-07T00:51:12;7.18;;;1.65;;
72647;SDS011;60693;50.002;8.644;2024-01-07T00:53:57;5.80;;;1.50;;
72647;SDS011;60693;50.002;8.644;2024-01-07T00:56:41;5.47;;;1.57;;
72647;SDS011;60693;50.002;8.644;2024-01-07T00:59:27;4.43;;;1.02;;
72647;SDS011;60693;50.002;8.644;2024-01-07T01:02:13;5.05;;;1.38;;
72647;SDS011;60693;50.002;8.644;2024-01-07T01:04:57;6.63;;;1.27;;
72647;SDS011;60693;50.002;8.644;2024-01-07T01:07:41;5.32;;;1.20;;
72647;SDS011;60693;50.002;8.644;2024-01-07T01:10:26;5.23;;;1.33;;
72647;SDS011;60693;50.002;8.644;2024-01-07T01:13:10;5.15;;;1.05;;
72647;SDS011;60693;50.002;8.644;2024-01-07T01:15:55;7.57;;;1.77;;
72647;SDS011;60693;50.002;8.644;2024-01-07T01:18:39;6.65;;;1.50;;
72647;SDS011;60693;50.002;8.644;2024-01-07T01:21:24;4.68;;;1.05;;
72647;SDS011;60693;50.002;8.644;2024-01-07T01:24:08;6.07;;;1.10;;
72647;SDS011;60693;50.002;8.644;2024-01-07T01:26:52;4.85;;;1.17;;
72647;SDS011;60693;50.002;8.644;2024-01-07T01:29:36;5.72;;;1.05;;
72647;SDS011;60693;50.002;8.644;2024-01-07T01:32:21;5.32;;;1.15;;
72647;SDS011;60693;50.002;8.644;2024-01-07T01:35:05;5.88;;;1.52;;
72647;SDS011;60693;50.002;8.644;2024-01-07T01:37:50;4.77;;;1.03;;
72647;SDS011;60693;50.002;8.644;2024-01-07T01:40:35;5.88;;;1.50;;
72647;SDS011;60693;50.002;8.644;2024-01-07T01:43:23;3.90;;;0.93;;
72647;SDS011;60693;50.002;8.644;2024-01-07T01:46:08;4.70;;;1.13;;
72647;SDS011;60693;50.002;8.644;2024-01-07T01:48:53;3.42;;;0.90;;
72647;SDS011;60693;50.002;8.644;2024-01-07T01:51:37;4.90;;;0.90;;
72647;SDS011;60693;50.002;8.644;2024-01-07T01:54:21;4.60;;;0.93;;
72647;SDS011;60693;50.002;8.644;2024-01-07T01:57:05;3.75;;;0.88;;
72647;SDS011;60693;50.002;8.644;2024-01-07T01:59:50;4.38;;;0.98;;
72647;SDS011;60693;50.002;8.644;2024-01-07T02:02:34;5.18;;;1.20;;
72647;SDS011;60693;50.002;8.644;2024-01-07T02:05:19;4.70;;;0.97;;
72647;SDS011;60693;50.002;8.644;2024-01-07T02:08:03;6.40;;;1.17;;
72647;SDS011;60693;50.002;8.644;2024-01-07T02:10:48;5.35;;;1.10;;
72647;SDS011;60693;50.002;8.644;2024-01-07T02:13:32;4.40;;;0.80;;
72647;SDS011;60693;50.002;8.644;2024-01-07T02:16:17;4.45;;;0.70;;
72647;SDS011;60693;50.002;8.644;2024-01-07T02:19:01;4.67;;;1.47;;
72647;SDS011;60693;50.002;8.644;2024-01-07T02:21:45;3.22;;;0.60;;
72647;SDS011;60693;50.002;8.644;2024-01-07T02:24:29;3.65;;;0.75;;
72647;SDS011;60693;50.002;8.644;2024-01-07T02:27:14;5.30;;;1.13;;
72647;SDS011;60693;50.002;8.644;2024-01-07T02:29:58;3.08;;;0.70;;
72647;SDS011;60693;50.002;8.644;2024-01-07T02:32:42;5.70;;;1.17;;
72647;SDS011;60693;50.002;8.644;2024-01-07T02:35:26;4.30;;;0.90;;
72647;SDS011;60693;50.002;8.644;2024-01-07T02:38:11;3.97;;;0.98;;
72647;SDS011;60693;50.002;8.644;2024-01-07T02:40:55;2.78;;;0.75;;
72647;SDS011;60693;50.002;8.644;2024-01-07T02:43:40;4.40;;;1.20;;
72647;SDS011;60693;50.002;8.644;2024-01-07T02:46:24;5.30;;;1.10;;
72647;SDS011;60693;50.002;8.644;2024-01-07T02:49:08;3.92;;;0.90;;
72647;SDS011;60693;50.002;8.644;2024-01-07T02:51:53;5.72;;;1.42;;
72647;SDS011;60693;50.002;8.644;2024-01-07T02:54:37;4.45;;;1.05;;
72647;SDS011;60693;50.002;8.644;2024-01-07T02:57:21;3.92;;;0.82;;
72647;SDS011;60693;50.002;8.644;2024-01-07T03:00:05;3.53;;;1.03;;
72647;SDS011;60693;50.002;8.644;2024-01-07T03:02:50;3.10;;;0.73;;
72647;SDS011;60693;50.002;8.644;2024-01-07T03:05:35;3.88;;;1.13;;
72647;SDS011;60693;50.002;8.644;2024-01-07T03:08:19;4.03;;;1.00;;
72647;SDS011;60693;50.002;8.644;2024-01-07T03:11:04;3.67;;;1.00;;
72647;SDS011;60693;50.002;8.644;2024-01-07T03:13:50;6.23;;;1.20;;
72647;SDS011;60693;50.002;8.644;2024-01-07T03:16:34;3.58;;;1.00;;
72647;SDS011;60693;50.002;8.644;2024-01-07T03:19:18;4.75;;;1.27;;
72647;SDS011;60693;50.002;8.644;2024-01-07T03:22:03;6.03;;;1.02;;
72647;SDS011;60693;50.002;8.644;2024-01-07T03:24:47;3.47;;;1.05;;
72647;SDS011;60693;50.002;8.644;2024-01-07T03:27:32;6.57;;;1.40;;
72647;SDS011;60693;50.002;8.644;2024-01-07T03:30:16;5.68;;;1.13;;
72647;SDS011;60693;50.002;8.644;2024-01-07T03:33:01;5.10;;;1.00;;
72647;SDS011;60693;50.002;8.644;2024-01-07T03:35:45;4.78;;;1.02;;
72647;SDS011;60693;50.002;8.644;2024-01-07T03:38:29;4.00;;;0.80;;
72647;SDS011;60693;50.002;8.644;2024-01-07T03:41:17;4.33;;;1.17;;
72647;SDS011;60693;50.002;8.644;2024-01-07T03:44:02;4.65;;;1.20;;
72647;SDS011;60693;50.002;8.644;2024-01-07T03:46:46;5.80;;;1.52;;
72647;SDS011;60693;50.002;8.644;2024-01-07T03:49:31;5.93;;;1.35;;
72647;SDS011;60693;50.002;8.644;2024-01-07T03:52:15;5.03;;;1.52;;
72647;SDS011;60693;50.002;8.644;2024-01-07T03:55:00;6.67;;;1.70;;
72647;SDS011;60693;50.002;8.644;2024-01-07T03:57:44;5.65;;;1.27;;
72647;SDS011;60693;50.002;8.644;2024-01-07T04:00:29;4.50;;;1.20;;
72647;SDS011;60693;50.002;8.644;2024-01-07T04:03:13;7.28;;;1.70;;
72647;SDS011;60693;50.002;8.644;2024-01-07T04:05:57;4.60;;;0.93;;
72647;SDS011;60693;50.002;8.644;2024-01-07T04:08:42;6.43;;;1.47;;
72647;SDS011;60693;50.002;8.644;2024-01-07T04:11:26;5.15;;;1.45;;
72647;SDS011;60693;50.002;8.644;2024-01-07T04:14:13;6.35;;;1.58;;
72647;SDS011;60693;50.002;8.644;2024-01-07T04:16:57;6.82;;;1.83;;
72647;SDS011;60693;50.002;8.644;2024-01-07T04:19:42;5.38;;;1.23;;
72647;SDS011;60693;50.002;8.644;2024-01-07T04:22:26;6.53;;;1.17;;
72647;SDS011;60693;50.002;8.644;2024-01-07T04:25:11;6.50;;;1.60;;
72647;SDS011;60693;50.002;8.644;2024-01-07T04:27:55;5.93;;;1.45;;
72647;SDS011;60693;50.002;8.644;2024-01-07T04:30:40;3.97;;;0.85;;
72647;SDS011;60693;50.002;8.644;2024-01-07T04:33:24;6.72;;;1.70;;
72647;SDS011;60693;50.002;8.644;2024-01-07T04:36:08;6.10;;;1.57;;
72647;SDS011;60693;50.002;8.644;2024-01-07T04:38:53;6.70;;;1.85;;
72647;SDS011;60693;50.002;8.644;2024-01-07T04:41:37;4.75;;;1.58;;
72647;SDS011;60693;50.002;8.644;2024-01-07T04:44:22;7.78;;;1.73;;
72647;SDS011;60693;50.002;8.644;2024-01-07T04:47:22;4.85;;;1.30;;
72647;SDS011;60693;50.002;8.644;2024-01-07T04:50:07;4.87;;;1.67;;
72647;SDS011;60693;50.002;8.644;2024-01-07T04:52:51;7.22;;;1.90;;
72647;SDS011;60693;50.002;8.644;2024-01-07T04:55:36;7.03;;;1.98;;
72647;SDS011;60693;50.002;8.644;2024-01-07T04:58:20;6.78;;;2.03;;
72647;SDS011;60693;50.002;8.644;2024-01-07T05:01:05;8.27;;;3.08;;
72647;SDS011;60693;50.002;8.644;2024-01-07T05:03:49;8.53;;;2.30;;
72647;SDS011;60693;50.002;8.644;2024-01-07T05:06:34;5.43;;;1.70;;
72647;SDS011;60693;50.002;8.644;2024-01-07T05:09:18;7.72;;;2.20;;
72647;SDS011;60693;50.002;8.644;2024-01-07T05:12:02;7.00;;;2.40;;
72647;SDS011;60693;50.002;8.644;2024-01-07T05:14:47;9.98;;;2.72;;
72647;SDS011;60693;50.002;8.644;2024-01-07T05:17:32;8.10;;;2.47;;
72647;SDS011;60693;50.002;8.644;2024-01-07T05:20:16;8.40;;;2.17;;
72647;SDS011;60693;50.002;8.644;2024-01-07T05:23:00;8.13;;;1.83;;
72647;SDS011;60693;50.002;8.644;2024-01-07T05:25:45;7.15;;;2.30;;
72647;SDS011;60693;50.002;8.644;2024-01-07T05:28:29;8.95;;;2.47;;
72647;SDS011;60693;50.002;8.644;2024-01-07T05:31:16;8.87;;;2.60;;
72647;SDS011;60693;50.002;8.644;2024-01-07T05:34:02;8.80;;;2.78;;
72647;SDS011;60693;50.002;8.644;2024-01-07T05:36:46;7.55;;;2.47;;
72647;SDS011;60693;50.002;8.644;2024-01-07T05:39:31;9.35;;;3.22;;
72647;SDS011;60693;50.002;8.644;2024-01-07T05:42:15;9.50;;;3.47;;
72647;SDS011;60693;50.002;8.644;2024-01-07T05:45:00;8.90;;;2.63;;
72647;SDS011;60693;50.002;8.644;2024-01-07T05:47:44;8.52;;;2.78;;
72647;SDS011;60693;50.002;8.644;2024-01-07T05:50:28;8.10;;;2.50;;
72647;SDS011;60693;50.002;8.644;2024-01-07T05:53:12;9.05;;;2.95;;
72647;SDS011;60693;50.002;8.644;2024-01-07T05:55:57;8.63;;;2.80;;
72647;SDS011;60693;50.002;8.644;2024-01-07T05:58:41;11.70;;;3.00;;
72647;SDS011;60693;50.002;8.644;2024-01-07T06:01:25;7.32;;;2.15;;
72647;SDS011;60693;50.002;8.644;2024-01-07T06:04:11;7.38;;;2.08;;
72647;SDS011;60693;50.002;8.644;2024-01-07T06:06:56;7.18;;;1.73;;
72647;SDS011;60693;50.002;8.644;2024-01-07T06:09:40;8.98;;;2.63;;
72647;SDS011;60693;50.002;8.644;2024-01-07T06:12:24;8.20;;;2.33;;
72647;SDS011;60693;50.002;8.644;2024-01-07T06:15:08;7.60;;;2.15;;
72647;SDS011;60693;50.002;8.644;2024-01-07T06:17:53;9.10;;;3.47;;
72647;SDS011;60693;50.002;8.644;2024-01-07T06:20:37;8.50;;;1.95;;
72647;SDS011;60693;50.002;8.644;2024-01-07T06:23:22;9.13;;;2.10;;
72647;SDS011;60693;50.002;8.644;2024-01-07T06:26:06;7.40;;;2.17;;
72647;SDS011;60693;50.002;8.644;2024-01-07T06:28:51;6.38;;;2.05;;
72647;SDS011;60693;50.002;8.644;2024-01-07T06:31:35;10.57;;;2.15;;
72647;SDS011;60693;50.002;8.644;2024-01-07T06:34:19;6.45;;;2.10;;
72647;SDS011;60693;50.002;8.644;2024-01-07T06:37:03;7.47;;;2.13;;
72647;SDS011;60693;50.002;8.644;2024-01-07T06:39:47;7.30;;;2.37;;
72647;SDS011;60693;50.002;8.644;2024-01-07T06:42:31;10.10;;;2.67;;
72647;SDS011;60693;50.002;8.644;2024-01-07T06:45:16;9.18;;;2.72;;
72647;SDS011;60693;50.002;8.644;2024-01-07T06:48:00;8.43;;;2.78;;
72647;SDS011;60693;50.002;8.644;2024-01-07T06:50:45;6.45;;;1.85;;
72647;SDS011;60693;50.002;8.644;2024-01-07T06:53:29;8.87;;;2.23;;
72647;SDS011;60693;50.002;8.644;2024-01-07T06:56:14;9.57;;;2.22;;
72647;SDS011;60693;50.002;8.644;2024-01-07T06:58:58;14.20;;;3.13;;
72647;SDS011;60693;50.002;8.644;2024-01-07T07:01:43;7.70;;;2.35;;
72647;SDS011;60693;50.002;8.644;2024-01-07T07:04:27;8.68;;;2.65;;
72647;SDS011;60693;50.002;8.644;2024-01-07T07:07:11;8.70;;;2.43;;
72647;SDS011;60693;50.002;8.644;2024-01-07T07:09:56;11.45;;;2.63;;
72647;SDS011;60693;50.002;8.644;2024-01-07T07:12:40;8.15;;;2.28;;
72647;SDS011;60693;50.002;8.644;2024-01-07T07:15:24;7.72;;;2.45;;
72647;SDS011;60693;50.002;8.644;2024-01-07T07:18:10;5.25;;;1.85;;
72647;SDS011;60693;50.002;8.644;2024-01-07T07:20:54;8.30;;;1.80;;
72647;SDS011;60693;50.002;8.644;2024-01-07T07:23:39;8.63;;;2.13;;
72647;SDS011;60693;50.002;8.644;2024-01-07T07:26:23;8.55;;;2.33;;
72647;SDS011;60693;50.002;8.644;2024-01-07T07:29:08;7.10;;;2.17;;
72647;SDS011;60693;50.002;8.644;2024-01-07T07:31:55;5.55;;;1.60;;
72647;SDS011;60693;50.002;8.644;2024-01-07T07:34:39;6.40;;;2.07;;
72647;SDS011;60693;50.002;8.644;2024-01-07T07:37:24;6.40;;;2.38;;
72647;SDS011;60693;50.002;8.644;2024-01-07T07:40:09;5.75;;;1.92;;
72647;SDS011;60693;50.002;8.644;2024-01-07T07:42:56;10.80;;;3.42;;
72647;SDS011;60693;50.002;8.644;2024-01-07T07:45:41;8.75;;;2.28;;
72647;SDS011;60693;50.002;8.644;2024-01-07T07:48:25;9.23;;;3.23;;
72647;SDS011;60693;50.002;8.644;2024-01-07T07:51:10;12.18;;;2.83;;
72647;SDS011;60693;50.002;8.644;2024-01-07T07:53:54;9.80;;;3.22;;
72647;SDS011;60693;50.002;8.644;2024-01-07T07:56:38;8.88;;;2.50;;
72647;SDS011;60693;50.002;8.644;2024-01-07T07:59:22;9.70;;;2.83;;
72647;SDS011;60693;50.002;8.644;2024-01-07T08:02:07;10.27;;;2.97;;
72647;SDS011;60693;50.002;8.644;2024-01-07T08:04:51;7.88;;;2.50;;
72647;SDS011;60693;50.002;8.644;2024-01-07T08:07:36;8.75;;;2.63;;
72647;SDS011;60693;50.002;8.644;2024-01-07T08:10:20;10.52;;;3.03;;
72647;SDS011;60693;50.002;8.644;2024-01-07T08:13:05;7.07;;;2.33;;
72647;SDS011;60693;50.002;8.644;2024-01-07T08:15:51;6.67;;;2.03;;
72647;SDS011;60693;50.002;8.644;2024-01-07T08:18:35;8.57;;;2.30;;
72647;SDS011;60693;50.002;8.644;2024-01-07T08:21:19;9.80;;;1.98;;
72647;SDS011;60693;50.002;8.644;2024-01-07T08:24:04;7.30;;;2.35;;
72647;SDS011;60693;50.002;8.644;2024-01-07T08:26:48;6.97;;;1.98;;
72647;SDS011;60693;50.002;8.644;2024-01-07T08:29:33;8.93;;;2.73;;
72647;SDS011;60693;50.002;8.644;2024-01-07T08:32:17;5.63;;;2.08;;
72647;SDS011;60693;50.002;8.644;2024-01-07T08:35:01;14.82;;;2.38;;
72647;SDS011;60693;50.002;8.644;2024-01-07T08:37:45;6.82;;;2.10;;
72647;SDS011;60693;50.002;8.644;2024-01-07T08:40:30;8.35;;;2.47;;
72647;SDS011;60693;50.002;8.644;2024-01-07T08:43:15;7.67;;;2.03;;
72647;SDS011;60693;50.002;8.644;2024-01-07T08:45:59;6.07;;;1.67;;
72647;SDS011;60693;50.002;8.644;2024-01-07T08:48:43;11.13;;;2.55;;
72647;SDS011;60693;50.002;8.644;2024-01-07T08:51:28;5.22;;;1.40;;
72647;SDS011;60693;50.002;8.644;2024-01-07T08:54:13;5.72;;;1.45;;
72647;SDS011;60693;50.002;8.644;2024-01-07T08:56:57;8.53;;;2.17;;
72647;SDS011;60693;50.002;8.644;2024-01-07T08:59:41;5.07;;;1.40;;
72647;SDS011;60693;50.002;8.644;2024-01-07T09:02:26;7.05;;;2.05;;
72647;SDS011;60693;50.002;8.644;2024-01-07T09:05:10;8.85;;;2.45;;
72647;SDS011;60693;50.002;8.644;2024-01-07T09:07:55;8.90;;;2.38;;
72647;SDS011;60693;50.002;8.644;2024-01-07T09:10:40;5.67;;;1.90;;
72647;SDS011;60693;50.002;8.644;2024-01-07T09:13:24;6.35;;;1.92;;
72647;SDS011;60693;50.002;8.644;2024-01-07T09:16:08;5.45;;;1.70;;
72647;SDS011;60693;50.002;8.644;2024-01-07T09:18:55;4.75;;;1.50;;
72647;SDS011;60693;50.002;8.644;2024-01-07T09:21:39;5.97;;;1.83;;
72647;SDS011;60693;50.002;8.644;2024-01-07T09:24:24;5.83;;;1.23;;
72647;SDS011;60693;50.002;8.644;2024-01-07T09:27:08;6.82;;;1.60;;
72647;SDS011;60693;50.002;8.644;2024-01-07T09:29:53;6.45;;;1.50;;
72647;SDS011;60693;50.002;8.644;2024-01-07T09:32:37;10.23;;;2.50;;
72647;SDS011;60693;50.002;8.644;2024-01-07T09:35:21;6.78;;;2.40;;
72647;SDS011;60693;50.002;8.644;2024-01-07T09:38:05;7.47;;;1.87;;
72647;SDS011;60693;50.002;8.644;2024-01-07T09:40:50;5.38;;;1.70;;
72647;SDS011;60693;50.002;8.644;2024-01-07T09:43:34;6.63;;;1.95;;
72647;SDS011;60693;50.002;8.644;2024-01-07T09:46:19;8.30;;;1.95;;
72647;SDS011;60693;50.002;8.644;2024-01-07T09:49:03;6.28;;;1.45;;
72647;SDS011;60693;50.002;8.644;2024-01-07T09:51:47;4.23;;;1.47;;
72647;SDS011;60693;50.002;8.644;2024-01-07T09:54:35;6.45;;;1.90;;
72647;SDS011;60693;50.002;8.644;2024-01-07T09:57:20;5.97;;;1.50;;
72647;SDS011;60693;50.002;8.644;2024-01-07T10:00:04;4.13;;;0.93;;
72647;SDS011;60693;50.002;8.644;2024-01-07T10:02:49;4.25;;;0.95;;
72647;SDS011;60693;50.002;8.644;2024-01-07T10:05:33;5.23;;;1.50;;
72647;SDS011;60693;50.002;8.644;2024-01-07T10:08:18;5.22;;;1.15;;
72647;SDS011;60693;50.002;8.644;2024-01-07T10:11:03;4.93;;;1.23;;
72647;SDS011;60693;50.002;8.644;2024-01-07T10:13:48;3.92;;;1.40;;
72647;SDS011;60693;50.002;8.644;2024-01-07T10:16:35;7.43;;;1.58;;
72647;SDS011;60693;50.002;8.644;2024-01-07T10:19:20;5.27;;;1.33;;
72647;SDS011;60693;50.002;8.644;2024-01-07T10:22:05;5.15;;;1.40;;
72647;SDS011;60693;50.002;8.644;2024-01-07T10:24:51;6.35;;;2.00;;
72647;SDS011;60693;50.002;8.644;2024-01-07T10:27:35;8.23;;;2.25;;
72647;SDS011;60693;50.002;8.644;2024-01-07T10:30:20;7.57;;;2.00;;
72647;SDS011;60693;50.002;8.644;2024-01-07T10:33:05;5.30;;;1.43;;
72647;SDS011;60693;50.002;8.644;2024-01-07T10:35:52;7.00;;;1.73;;
72647;SDS011;60693;50.002;8.644;2024-01-07T10:38:40;6.60;;;1.98;;
72647;SDS011;60693;50.002;8.644;2024-01-07T10:41:25;3.53;;;0.88;;
72647;SDS011;60693;50.002;8.644;2024-01-07T10:44:10;10.40;;;2.00;;
72647;SDS011;60693;50.002;8.644;2024-01-07T10:46:55;5.80;;;1.43;;
72647;SDS011;60693;50.002;8.644;2024-01-07T10:49:40;4.75;;;1.45;;
72647;SDS011;60693;50.002;8.644;2024-01-07T10:52:28;5.72;;;1.40;;
72647;SDS011;60693;50.002;8.644;2024-01-07T10:55:12;6.68;;;1.35;;
72647;SDS011;60693;50.002;8.644;2024-01-07T10:57:58;5.45;;;1.50;;
72647;SDS011;60693;50.002;8.644;2024-01-07T11:00:43;11.10;;;2.70;;
72647;SDS011;60693;50.002;8.644;2024-01-07T11:03:28;7.90;;;2.50;;
72647;SDS011;60693;50.002;8.644;2024-01-07T11:06:32;7.45;;;2.03;;
72647;SDS011;60693;50.002;8.644;2024-01-07T11:09:51;7.55;;;1.52;;
72647;SDS011;60693;50.002;8.644;2024-01-07T11:12:54;5.68;;;2.10;;
72647;SDS011;60693;50.002;8.644;2024-01-07T11:18:33;6.75;;;2.45;;
72647;SDS011;60693;50.002;8.644;2024-01-07T11:21:21;8.52;;;1.63;;
72647;SDS011;60693;50.002;8.644;2024-01-07T11:24:08;10.07;;;2.53;;
72647;SDS011;60693;50.002;8.644;2024-01-07T11:26:52;7.82;;;2.10;;
72647;SDS011;60693;50.002;8.644;2024-01-07T11:29:37;6.57;;;1.87;;
72647;SDS011;60693;50.002;8.644;2024-01-07T11:32:22;9.85;;;2.97;;
72647;SDS011;60693;50.002;8.644;2024-01-07T11:35:08;5.97;;;1.80;;
72647;SDS011;60693;50.002;8.644;2024-01-07T11:37:53;7.43;;;1.85;;
72647;SDS011;60693;50.002;8.644;2024-01-07T11:40:37;8.10;;;2.55;;
72647;SDS011;60693;50.002;8.644;2024-01-07T11:43:21;6.77;;;2.00;;
72647;SDS011;60693;50.002;8.644;2024-01-07T11:46:05;5.43;;;1.75;;
72647;SDS011;60693;50.002;8.644;2024-01-07T11:48:53;5.90;;;1.77;;
72647;SDS011;60693;50.002;8.644;2024-01-07T11:51:42;7.20;;;2.33;;
72647;SDS011;60693;50.002;8.644;2024-01-07T11:54:27;5.35;;;1.42;;
72647;SDS011;60693;50.002;8.644;2024-01-07T11:57:11;9.00;;;2.67;;
72647;SDS011;60693;50.002;8.644;2024-01-07T11:59:55;9.27;;;2.17;;
72647;SDS011;60693;50.002;8.644;2024-01-07T12:02:39;6.60;;;1.50;;
72647;SDS011;60693;50.002;8.644;2024-01-07T12:05:24;6.90;;;1.45;;
72647;SDS011;60693;50.002;8.644;2024-01-07T12:08:08;7.85;;;1.67;;
72647;SDS011;60693;50.002;8.644;2024-01-07T12:10:52;8.73;;;2.00;;
72647;SDS011;60693;50.002;8.644;2024-01-07T12:13:37;4.93;;;1.50;;
72647;SDS011;60693;50.002;8.644;2024-01-07T12:16:21;6.28;;;1.90;;
72647;SDS011;60693;50.002;8.644;2024-01-07T12:19:07;7.95;;;1.58;;
72647;SDS011;60693;50.002;8.644;2024-01-07T12:22:05;5.95;;;1.38;;
72647;SDS011;60693;50.002;8.644;2024-01-07T12:24:59;5.77;;;1.97;;
72647;SDS011;60693;50.002;8.644;2024-01-07T12:27:44;7.82;;;1.50;;
72647;SDS011;60693;50.002;8.644;2024-01-07T12:30:29;7.40;;;2.28;;
72647;SDS011;60693;50.002;8.644;2024-01-07T12:33:21;6.80;;;1.85;;
72647;SDS011;60693;50.002;8.644;2024-01-07T12:36:05;9.30;;;1.90;;
72647;SDS011;60693;50.002;8.644;2024-01-07T12:38:51;7.07;;;1.63;;
72647;SDS011;60693;50.002;8.644;2024-01-07T12:41:39;5.10;;;1.45;;
72647;SDS011;60693;50.002;8.644;2024-01-07T12:44:27;7.13;;;1.90;;
72647;SDS011;60693;50.002;8.644;2024-01-07T12:47:11;7.78;;;1.90;;
72647;SDS011;60693;50.002;8.644;2024-01-07T12:49:55;6.40;;;2.05;;
72647;SDS011;60693;50.002;8.644;2024-01-07T12:52:41;5.40;;;1.73;;
72647;SDS011;60693;50.002;8.644;2024-01-07T12:55:26;5.50;;;1.58;;
72647;SDS011;60693;50.002;8.644;2024-01-07T12:58:10;8.73;;;2.80;;
72647;SDS011;60693;50.002;8.644;2024-01-07T13:00:54;8.63;;;2.58;;
72647;SDS011;60693;50.002;8.644;2024-01-07T13:03:38;8.10;;;1.73;;
72647;SDS011;60693;50.002;8.644;2024-01-07T13:06:23;9.07;;;2.47;;
72647;SDS011;60693;50.002;8.644;2024-01-07T13:09:07;7.18;;;1.92;;
72647;SDS011;60693;50.002;8.644;2024-01-07T13:11:53;7.60;;;2.20;;
72647;SDS011;60693;50.002;8.644;2024-01-07T13:14:38;5.63;;;1.90;;
72647;SDS011;60693;50.002;8.644;2024-01-07T13:17:22;10.07;;;2.40;;
72647;SDS011;60693;50.002;8.644;2024-01-07T13:20:06;5.50;;;1.80;;
72647;SDS011;60693;50.002;8.644;2024-01-07T13:22:55;6.80;;;1.65;;
72647;SDS011;60693;50.002;8.644;2024-01-07T13:25:39;6.05;;;1.50;;
72647;SDS011;60693;50.002;8.644;2024-01-07T13:28:24;4.97;;;1.00;;
72647;SDS011;60693;50.002;8.644;2024-01-07T13:31:08;7.15;;;1.70;;
72647;SDS011;60693;50.002;8.644;2024-01-07T13:33:56;4.70;;;1.30;;
72647;SDS011;60693;50.002;8.644;2024-01-07T13:36:40;4.55;;;1.20;;
72647;SDS011;60693;50.002;8.644;2024-01-07T13:39:24;5.15;;;1.10;;
72647;SDS011;60693;50.002;8.644;2024-01-07T13:42:10;5.57;;;1.70;;
72647;SDS011;60693;50.002;8.644;2024-01-07T13:44:54;8.65;;;2.15;;
72647;SDS011;60693;50.002;8.644;2024-01-07T13:47:41;10.47;;;1.10;;
72647;SDS011;60693;50.002;8.644;2024-01-07T13:50:26;4.50;;;0.85;;
72647;SDS011;60693;50.002;8.644;2024-01-07T13:53:10;5.63;;;1.50;;
72647;SDS011;60693;50.002;8.644;2024-01-07T13:55:55;4.07;;;1.02;;
72647;SDS011;60693;50.002;8.644;2024-01-07T13:58:39;5.40;;;1.23;;
72647;SDS011;60693;50.002;8.644;2024-01-07T14:01:24;4.83;;;1.20;;
72647;SDS011;60693;50.002;8.644;2024-01-07T14:04:08;6.07;;;1.33;;
72647;SDS011;60693;50.002;8.644;2024-01-07T14:06:54;3.83;;;0.80;;
72647;SDS011;60693;50.002;8.644;2024-01-07T14:09:39;5.45;;;1.25;;
72647;SDS011;60693;50.002;8.644;2024-01-07T14:12:23;8.63;;;2.38;;
72647;SDS011;60693;50.002;8.644;2024-01-07T14:15:08;8.27;;;2.27;;
72647;SDS011;60693;50.002;8.644;2024-01-07T14:17:53;5.72;;;1.67;;
72647;SDS011;60693;50.002;8.644;2024-01-07T14:20:37;6.60;;;1.83;;
72647;SDS011;60693;50.002;8.644;2024-01-07T14:23:21;6.78;;;1.65;;
72647;SDS011;60693;50.002;8.644;2024-01-07T14:26:06;6.70;;;1.65;;
72647;SDS011;60693;50.002;8.644;2024-01-07T14:28:50;4.20;;;1.20;;
72647;SDS011;60693;50.002;8.644;2024-01-07T14:31:35;8.27;;;1.45;;
72647;SDS011;60693;50.002;8.644;2024-01-07T14:34:19;6.38;;;1.40;;
72647;SDS011;60693;50.002;8.644;2024-01-07T14:37:04;7.22;;;1.73;;
72647;SDS011;60693;50.002;8.644;2024-01-07T14:39:48;6.95;;;1.23;;
72647;SDS011;60693;50.002;8.644;2024-01-07T14:42:32;7.63;;;1.13;;
72647;SDS011;60693;50.002;8.644;2024-01-07T14:45:17;12.88;;;1.52;;
72647;SDS011;60693;50.002;8.644;2024-01-07T14:48:01;7.15;;;1.83;;
72647;SDS011;60693;50.002;8.644;2024-01-07T14:50:45;5.53;;;1.30;;
72647;SDS011;60693;50.002;8.644;2024-01-07T14:53:31;9.88;;;3.53;;
72647;SDS011;60693;50.002;8.644;2024-01-07T14:56:16;8.57;;;1.70;;
72647;SDS011;60693;50.002;8.644;2024-01-07T14:59:00;5.13;;;0.85;;
72647;SDS011;60693;50.002;8.644;2024-01-07T15:01:44;7.50;;;1.40;;
72647;SDS011;60693;50.002;8.644;2024-01-07T15:04:28;4.05;;;1.02;;
72647;SDS011;60693;50.002;8.644;2024-01-07T15:07:13;5.55;;;1.50;;
72647;SDS011;60693;50.002;8.644;2024-01-07T15:09:57;5.67;;;1.73;;
72647;SDS011;60693;50.002;8.644;2024-01-07T15:12:44;8.10;;;0.82;;
72647;SDS011;60693;50.002;8.644;2024-01-07T15:15:28;9.35;;;2.40;;
72647;SDS011;60693;50.002;8.644;2024-01-07T15:18:13;3.65;;;1.08;;
72647;SDS011;60693;50.002;8.644;2024-01-07T15:20:57;3.72;;;1.08;;
72647;SDS011;60693;50.002;8.644;2024-01-07T15:23:42;3.77;;;1.03;;
72647;SDS011;60693;50.002;8.644;2024-01-07T15:26:25;1.95;;;0.50;;
72647;SDS011;60693;50.002;8.644;2024-01-07T15:29:10;4.35;;;1.05;;
72647;SDS011;60693;50.002;8.644;2024-01-07T15:31:54;5.70;;;1.35;;
72647;SDS011;60693;50.002;8.644;2024-01-07T15:34:39;5.30;;;1.05;;
72647;SDS011;60693;50.002;8.644;2024-01-07T15:37:23;3.47;;;0.87;;
72647;SDS011;60693;50.002;8.644;2024-01-07T15:40:08;3.15;;;0.68;;
72647;SDS011;60693;50.002;8.644;2024-01-07T15:42:53;3.35;;;1.08;;
72647;SDS011;60693;50.002;8.644;2024-01-07T15:45:37;3.25;;;0.80;;
72647;SDS011;60693;50.002;8.644;2024-01-07T15:48:22;3.33;;;0.75;;
72647;SDS011;60693;50.002;8.644;2024-01-07T15:51:08;2.20;;;0.50;;
72647;SDS011;60693;50.002;8.644;2024-01-07T15:53:52;2.47;;;0.55;;
72647;SDS011;60693;50.002;8.644;2024-01-07T15:56:37;4.28;;;0.93;;
72647;SDS011;60693;50.002;8.644;2024-01-07T15:59:21;3.65;;;0.88;;
72647;SDS011;60693;50.002;8.644;2024-01-07T16:02:06;3.80;;;0.77;;
72647;SDS011;60693;50.002;8.644;2024-01-07T16:04:50;5.03;;;0.70;;
72647;SDS011;60693;50.002;8.644;2024-01-07T16:07:34;2.58;;;0.85;;
72647;SDS011;60693;50.002;8.644;2024-01-07T16:10:19;1.92;;;0.43;;
72647;SDS011;60693;50.002;8.644;2024-01-07T16:13:03;2.20;;;0.60;;
72647;SDS011;60693;50.002;8.644;2024-01-07T16:15:47;4.00;;;1.33;;
72647;SDS011;60693;50.002;8.644;2024-01-07T16:18:32;3.37;;;0.83;;
72647;SDS011;60693;50.002;8.644;2024-01-07T16:21:16;2.97;;;1.25;;
72647;SDS011;60693;50.002;8.644;2024-01-07T16:24:04;2.38;;;0.50;;
72647;SDS011;60693;50.002;8.644;2024-01-07T16:26:48;2.05;;;0.50;;
72647;SDS011;60693;50.002;8.644;2024-01-07T16:29:34;3.80;;;0.98;;
72647;SDS011;60693;50.002;8.644;2024-01-07T16:32:18;1.87;;;0.50;;
72647;SDS011;60693;50.002;8.644;2024-01-07T16:35:03;1.45;;;0.40;;
72647;SDS011;60693;50.002;8.644;2024-01-07T16:37:48;1.77;;;0.43;;